Date,TemperatureHighF,TemperatureAvgF,TemperatureLowF,DewpointHighF,DewpointAvgF,DewpointLowF,HumidityHigh,HumidityAvg,HumidityLow,PressureMaxIn,PressureMinIn,WindSpeedMaxMPH,WindSpeedAvgMPH,GustSpeedMaxMPH,PrecipitationSumIn
2013-4-6,61.8,35.1,41.1,10.0,-31.9,-99.9,24,9,9,30.33,30.07,9,-351,12,0.00
2013-4-7,69.8,35.0,63.4,43.9,-28.4,-99.9,46,17,30,30.04,29.91,19,-472,28,0.00
2013-4-8,73.5,25.9,66.1,44.0,-48.6,-99.9,39,12,29,30.08,29.92,16,-631,25,0.00
2013-4-9,79.4,31.3,65.5,52.6,-37.0,-99.9,58,18,35,30.15,29.93,13,-575,20,0.00
2013-4-10,82.4,34.1,69.8,54.7,-33.9,-99.9,54,18,32,30.04,29.79,14,-560,22,0.00
2013-4-11,78.8,21.2,72.5,55.4,-57.6,-99.9,55,12,33,29.90,29.63,10,-720,14,0.00
2013-4-12,63.9,25.0,56.3,55.3,-40.3,-99.9,86,24,33,29.76,29.50,0,-585,1,29.76
2013-4-13,58.7,36.9,42.1,31.8,-10.7,-99.9,57,27,27,30.06,29.90,16,-292,30,0.00
2013-4-14,63.5,22.6,42.8,31.6,-47.4,-99.9,49,15,26,30.23,30.03,7,-590,12,0.00
2013-4-15,63.4,26.4,55.9,47.6,-37.0,-99.9,71,24,50,30.15,30.00,14,-561,21,0.00
2013-4-16,79.6,30.7,66.6,54.8,-37.2,-99.9,55,19,38,30.24,30.02,14,-584,22,0.00
2013-4-17,67.1,24.7,56.3,59.2,-36.9,-99.9,100,35,72,30.28,30.10,7,-598,11,0.00
2013-4-18,81.8,35.4,74.0,55.2,-30.9,-99.9,51,19,33,30.15,29.84,18,-544,30,0.00
2013-4-19,-200.0,0.0,200.0,-99.9,-99.9,-99.9,0,0,100,29.86,29.70,0,-999,11,0.06
2013-4-20,48.8,19.3,38.2,25.6,-47.3,-99.9,59,18,30,30.44,29.86,16,-562,22,0.00
2013-4-21,53.5,4.1,50.5,18.9,-90.6,-99.9,28,2,24,30.58,30.43,7,-920,14,0.00
2013-4-22,59.0,21.6,48.0,24.1,-53.4,-99.9,37,10,17,30.51,30.28,20,-607,23,0.00
2013-4-23,68.8,26.8,51.9,34.4,-45.9,-99.9,50,11,20,30.30,29.99,10,-577,15,0.00
2013-4-24,73.9,19.6,59.0,57.4,-56.7,-99.9,87,16,40,30.15,29.75,26,-707,30,0.00
2013-4-25,56.2,20.8,40.9,30.8,-48.5,-99.9,53,16,28,30.40,30.14,11,-583,20,0.00
2013-4-26,58.0,22.1,45.7,32.3,-47.9,-99.9,59,15,27,30.53,30.38,9,-588,12,0.00
2013-4-27,72.8,26.8,58.4,32.4,-49.4,-99.9,37,9,18,30.43,30.17,9,-602,17,0.00
2013-4-28,60.5,16.4,54.2,50.6,-58.4,-99.9,87,19,61,30.19,29.98,21,-715,21,0.00
2013-4-29,63.4,18.2,58.3,53.6,-54.8,-99.9,80,21,64,30.06,29.96,6,-701,10,0.01
2013-4-30,69.8,28.5,56.7,52.1,-35.7,-99.9,76,24,47,30.19,30.03,17,-562,23,0.00